Time;durP1;ratioP1;P1;durP2;ratioP2;P2;SDS_P1;SDS_P2;PMS_P1;PMS_P2;Temp;Humidity;BMP_temperature;BMP_pressure;BME280_temperature;BME280_humidity;BME280_pressure;Samples;Min_cycle;Max_cycle;Signal;HPM_P1;HPM_P2
2021/07/30 00:02:20;;;;;;;13.38;6.47;;;;;;;;;;5132976;27;20039;-82
2021/07/30 00:04:46;;;;;;;14.63;7.05;;;;;;;;;;5130445;27;20048;-83
2021/07/30 00:07:13;;;;;;;17.40;5.75;;;;;;;;;;5131135;27;20067;-82
2021/07/30 00:09:39;;;;;;;16.70;7.10;;;;;;;;;;5129317;27;20550;-83
2021/07/30 00:12:06;;;;;;;15.73;6.65;;;;;;;;;;5130784;27;20379;-84
2021/07/30 00:14:32;;;;;;;20.63;6.75;;;;;;;;;;5131937;27;20134;-84
2021/07/30 00:16:59;;;;;;;15.77;6.68;;;;;;;;;;5130034;27;20118;-83
2021/07/30 00:19:25;;;;;;;15.25;6.53;;;;;;;;;;5129498;27;20046;-83
2021/07/30 00:21:51;;;;;;;18.00;7.10;;;;;;;;;;5129177;27;20111;-82
2021/07/30 00:24:17;;;;;;;14.65;7.00;;;;;;;;;;5130623;27;20039;-82
2021/07/30 00:26:44;;;;;;;17.55;7.07;;;;;;;;;;5131778;27;20040;-83
2021/07/30 00:29:10;;;;;;;15.88;6.90;;;;;;;;;;5114023;27;20039;-82
2021/07/30 00:31:36;;;;;;;11.88;5.90;;;;;;;;;;5132454;27;20397;-83
2021/07/30 00:34:03;;;;;;;21.13;7.38;;;;;;;;;;5130834;27;20517;-82
2021/07/30 00:36:29;;;;;;;20.15;7.00;;;;;;;;;;5130511;27;20061;-83
2021/07/30 00:38:55;;;;;;;19.05;7.63;;;;;;;;;;5132451;27;20046;-83
2021/07/30 00:41:21;;;;;;;17.75;7.30;;;;;;;;;;5130297;27;20393;-81
2021/07/30 00:43:47;;;;;;;11.18;6.93;;;;;;;;;;5130137;27;20086;-82
2021/07/30 00:46:13;;;;;;;20.65;7.05;;;;;;;;;;5133667;27;20137;-83
2021/07/30 00:48:40;;;;;;;13.98;6.38;;;;;;;;;;5143752;27;20089;-83
2021/07/30 00:51:07;;;;;;;20.25;7.38;;;;;;;;;;5131609;27;20051;-79
2021/07/30 00:53:33;;;;;;;15.93;7.70;;;;;;;;;;5129011;27;20043;-83
2021/07/30 00:55:59;;;;;;;15.77;7.38;;;;;;;;;;5125131;27;20172;-83
2021/07/30 00:58:28;;;;;;;20.40;8.07;;;;;;;;;;5129551;27;20394;-83
2021/07/30 01:00:54;;;;;;;21.13;8.15;;;;;;;;;;5130424;27;20035;-83
2021/07/30 01:03:21;;;;;;;15.10;7.80;;;;;;;;;;5127578;27;20164;-82
2021/07/30 01:05:47;;;;;;;16.65;8.00;;;;;;;;;;5143616;27;20070;-82
2021/07/30 01:08:14;;;;;;;19.80;7.93;;;;;;;;;;5129482;27;20129;-83
2021/07/30 01:10:40;;;;;;;16.73;8.10;;;;;;;;;;5131321;27;20038;-82
2021/07/30 01:13:06;;;;;;;18.70;8.65;;;;;;;;;;5127868;27;20070;-83
2021/07/30 01:15:32;;;;;;;20.67;7.53;;;;;;;;;;5129513;27;20039;-83
2021/07/30 01:17:58;;;;;;;16.17;8.18;;;;;;;;;;5111477;27;20035;-83
2021/07/30 01:20:25;;;;;;;17.13;8.02;;;;;;;;;;5130120;27;20039;-83
2021/07/30 01:22:52;;;;;;;25.92;8.95;;;;;;;;;;5128544;27;20504;-83
2021/07/30 01:25:20;;;;;;;19.13;9.10;;;;;;;;;;5129422;27;20054;-81
2021/07/30 01:27:46;;;;;;;16.13;9.15;;;;;;;;;;5130471;27;20385;-83
2021/07/30 01:30:13;;;;;;;18.92;10.30;;;;;;;;;;5128228;27;20046;-82
2021/07/30 01:32:40;;;;;;;17.40;8.55;;;;;;;;;;5128461;27;20073;-82
2021/07/30 01:35:06;;;;;;;18.08;9.70;;;;;;;;;;5125201;27;20055;-82
2021/07/30 01:37:32;;;;;;;21.02;9.38;;;;;;;;;;5128915;27;20514;-83
2021/07/30 01:39:59;;;;;;;17.25;9.50;;;;;;;;;;5131057;27;20051;-83
2021/07/30 01:42:25;;;;;;;22.65;10.05;;;;;;;;;;5127534;27;20129;-82
2021/07/30 01:44:51;;;;;;;18.92;9.23;;;;;;;;;;5127948;27;20562;-82
2021/07/30 01:47:20;;;;;;;24.33;10.77;;;;;;;;;;5128535;27;20039;-83
2021/07/30 01:49:49;;;;;;;22.42;10.57;;;;;;;;;;5129146;27;20549;-83
2021/07/30 01:52:16;;;;;;;19.55;10.00;;;;;;;;;;5127701;27;20473;-82
2021/07/30 01:54:42;;;;;;;16.75;10.07;;;;;;;;;;5131506;27;20047;-82
2021/07/30 01:57:08;;;;;;;20.88;11.13;;;;;;;;;;5126264;27;20508;-84
2021/07/30 01:59:34;;;;;;;21.38;10.43;;;;;;;;;;5129735;27;20078;-84
2021/07/30 02:02:00;;;;;;;21.27;11.02;;;;;;;;;;5128371;27;21213;-84
2021/07/30 02:04:27;;;;;;;20.02;11.57;;;;;;;;;;5124528;27;20031;-82
2021/07/30 02:06:53;;;;;;;19.95;10.10;;;;;;;;;;5128844;27;20052;-82
2021/07/30 02:09:19;;;;;;;19.10;10.82;;;;;;;;;;5130514;27;20043;-82
2021/07/30 02:11:50;;;;;;;21.67;11.73;;;;;;;;;;5129338;27;20057;-82
2021/07/30 02:14:17;;;;;;;21.42;11.50;;;;;;;;;;5126670;27;20078;-82
2021/07/30 02:16:43;;;;;;;21.50;11.65;;;;;;;;;;5129353;27;20124;-83
2021/07/30 02:19:09;;;;;;;21.95;12.50;;;;;;;;;;5130010;27;20393;-82
2021/07/30 02:21:35;;;;;;;21.35;11.65;;;;;;;;;;5126685;27;20493;-83
2021/07/30 02:24:02;;;;;;;26.42;11.70;;;;;;;;;;5112595;27;20050;-83
2021/07/30 02:26:28;;;;;;;22.52;12.60;;;;;;;;;;5126952;27;20063;-82
2021/07/30 02:28:55;;;;;;;24.95;11.85;;;;;;;;;;5128535;27;20047;-82
2021/07/30 02:31:21;;;;;;;22.00;12.32;;;;;;;;;;5125194;27;20036;-82
2021/07/30 02:33:47;;;;;;;22.27;12.18;;;;;;;;;;5129507;27;20534;-82
2021/07/30 02:36:13;;;;;;;23.52;11.85;;;;;;;;;;5129823;27;20126;-82
2021/07/30 02:38:40;;;;;;;22.77;11.65;;;;;;;;;;5128161;27;20114;-82
2021/07/30 02:41:06;;;;;;;25.95;12.90;;;;;;;;;;5128687;27;20039;-84
2021/07/30 02:43:32;;;;;;;20.35;11.93;;;;;;;;;;5125823;27;20060;-83
2021/07/30 02:45:59;;;;;;;19.15;10.77;;;;;;;;;;5128448;28;20057;-84
2021/07/30 02:48:25;;;;;;;28.90;12.85;;;;;;;;;;5127028;27;20036;-82
2021/07/30 02:50:51;;;;;;;25.13;12.68;;;;;;;;;;5125707;28;20047;-83
2021/07/30 02:53:17;;;;;;;24.73;12.98;;;;;;;;;;5126715;27;20035;-79
2021/07/30 02:55:45;;;;;;;25.92;12.85;;;;;;;;;;5125225;28;20042;-88
2021/07/30 02:58:12;;;;;;;26.52;13.18;;;;;;;;;;5129013;28;20047;-81
2021/07/30 03:00:38;;;;;;;26.88;12.57;;;;;;;;;;5128050;27;20505;-83
2021/07/30 03:03:04;;;;;;;26.88;12.05;;;;;;;;;;5111735;28;20061;-83
2021/07/30 03:05:31;;;;;;;21.75;12.68;;;;;;;;;;5128242;27;20039;-84
2021/07/30 03:07:57;;;;;;;23.63;12.63;;;;;;;;;;5129625;28;20078;-83
2021/07/30 03:10:31;;;;;;;23.73;12.07;;;;;;;;;;5125236;28;20035;-80
2021/07/30 03:12:57;;;;;;;29.75;12.55;;;;;;;;;;5127513;28;20031;-83
2021/07/30 03:15:23;;;;;;;24.25;12.95;;;;;;;;;;5127508;27;20068;-82
2021/07/30 03:17:49;;;;;;;22.80;12.50;;;;;;;;;;5127862;28;20047;-82
2021/07/30 03:20:15;;;;;;;26.05;12.32;;;;;;;;;;5110739;28;20050;-81
2021/07/30 03:22:41;;;;;;;32.80;12.07;;;;;;;;;;5125695;28;20047;-82
2021/07/30 03:25:08;;;;;;;27.55;12.77;;;;;;;;;;5129767;27;20039;-83
2021/07/30 03:27:34;;;;;;;24.42;12.93;;;;;;;;;;5129329;27;20053;-82
2021/07/30 03:30:03;;;;;;;23.50;12.52;;;;;;;;;;5108159;28;20426;-83
2021/07/30 03:32:29;;;;;;;21.20;11.35;;;;;;;;;;5125003;28;20398;-84
2021/07/30 03:34:55;;;;;;;26.08;12.25;;;;;;;;;;5128545;28;20375;-82
2021/07/30 03:37:21;;;;;;;30.70;12.52;;;;;;;;;;5109913;28;20051;-80
2021/07/30 03:39:47;;;;;;;19.73;11.70;;;;;;;;;;5153343;27;20074;-83
2021/07/30 03:42:14;;;;;;;18.95;11.40;;;;;;;;;;5125987;28;20087;-82
2021/07/30 03:44:40;;;;;;;23.55;12.63;;;;;;;;;;5109678;28;20051;-82
2021/07/30 03:47:06;;;;;;;17.58;11.40;;;;;;;;;;5128765;28;20050;-84
2021/07/30 03:49:32;;;;;;;22.17;12.30;;;;;;;;;;5127688;28;20047;-82
2021/07/30 03:51:58;;;;;;;23.95;12.02;;;;;;;;;;5125635;28;20043;-82
2021/07/30 03:54:24;;;;;;;26.45;12.10;;;;;;;;;;5128888;28;20043;-83
2021/07/30 03:56:50;;;;;;;20.98;11.27;;;;;;;;;;5127441;28;20074;-82
2021/07/30 03:59:17;;;;;;;24.58;12.02;;;;;;;;;;5110159;27;20042;-83
2021/07/30 04:01:47;;;;;;;25.05;13.48;;;;;;;;;;5132521;27;20506;-83
2021/07/30 04:04:16;;;;;;;23.50;12.70;;;;;;;;;;5136866;27;20038;-84
2021/07/30 04:06:47;;;;;;;32.58;14.07;;;;;;;;;;5133847;27;20570;-82
2021/07/30 04:09:16;;;;;;;25.42;12.45;;;;;;;;;;5126256;27;20062;-83
2021/07/30 04:11:43;;;;;;;29.55;12.68;;;;;;;;;;5130547;27;20449;-83
2021/07/30 04:14:09;;;;;;;22.00;12.20;;;;;;;;;;5129437;27;20043;-83
2021/07/30 04:16:36;;;;;;;20.88;12.05;;;;;;;;;;5129455;27;20063;-84
2021/07/30 04:19:03;;;;;;;23.17;13.23;;;;;;;;;;5113461;27;20045;-83
2021/07/30 04:21:29;;;;;;;22.77;11.75;;;;;;;;;;5128818;27;20043;-83
2021/07/30 04:23:56;;;;;;;21.92;12.77;;;;;;;;;;5113607;27;20463;-83
2021/07/30 04:26:22;;;;;;;23.65;13.27;;;;;;;;;;5129787;27;20047;-82
2021/07/30 04:28:53;;;;;;;36.28;13.40;;;;;;;;;;5128861;27;20039;-83
2021/07/30 04:31:20;;;;;;;22.15;12.13;;;;;;;;;;5131511;27;20043;-83
2021/07/30 04:33:46;;;;;;;17.95;11.95;;;;;;;;;;5132371;27;20305;-84
2021/07/30 04:36:15;;;;;;;23.10;12.48;;;;;;;;;;5128788;27;20490;-82
2021/07/30 04:38:45;;;;;;;24.08;12.55;;;;;;;;;;5126543;27;20046;-82
2021/07/30 04:41:11;;;;;;;25.58;13.45;;;;;;;;;;5131800;27;20789;-81
2021/07/30 04:43:38;;;;;;;20.45;13.25;;;;;;;;;;5132072;27;20110;-82
2021/07/30 04:46:04;;;;;;;25.48;12.18;;;;;;;;;;5131669;27;20035;-83
2021/07/30 04:48:30;;;;;;;26.08;12.15;;;;;;;;;;5131783;27;20035;-83
2021/07/30 04:51:00;;;;;;;25.80;12.35;;;;;;;;;;5124892;27;20403;-83
2021/07/30 04:53:29;;;;;;;25.60;12.60;;;;;;;;;;5129153;27;20035;-82
2021/07/30 04:55:57;;;;;;;20.65;12.95;;;;;;;;;;5126856;27;20046;-84
2021/07/30 04:58:23;;;;;;;26.75;13.20;;;;;;;;;;5133438;27;20046;-84
2021/07/30 05:00:49;;;;;;;22.58;11.20;;;;;;;;;;5132082;27;20051;-81
2021/07/30 05:03:15;;;;;;;22.10;11.73;;;;;;;;;;5130028;27;20494;-82
2021/07/30 05:05:41;;;;;;;24.05;13.15;;;;;;;;;;5128897;27;20035;-82
2021/07/30 05:08:08;;;;;;;23.20;12.18;;;;;;;;;;5130020;27;20067;-81
2021/07/30 05:10:34;;;;;;;24.65;11.43;;;;;;;;;;5128768;27;20482;-84
2021/07/30 05:13:01;;;;;;;20.05;12.15;;;;;;;;;;5134137;27;20393;-84
2021/07/30 05:15:27;;;;;;;27.08;12.02;;;;;;;;;;5132986;27;20043;-80
2021/07/30 05:17:55;;;;;;;23.02;12.23;;;;;;;;;;5130407;27;20043;-77
2021/07/30 05:20:25;;;;;;;24.73;12.38;;;;;;;;;;5130566;27;20100;-77
2021/07/30 05:22:51;;;;;;;24.40;12.07;;;;;;;;;;5131012;27;20478;-76
2021/07/30 05:25:17;;;;;;;17.38;11.35;;;;;;;;;;5129260;27;20047;-78
2021/07/30 05:27:44;;;;;;;25.08;11.20;;;;;;;;;;5130295;27;20043;-76
2021/07/30 05:30:10;;;;;;;21.75;11.10;;;;;;;;;;5124967;27;20487;-82
2021/07/30 05:32:37;;;;;;;20.77;10.85;;;;;;;;;;5127849;27;20487;-80
2021/07/30 05:35:03;;;;;;;25.27;10.50;;;;;;;;;;5131708;27;20056;-81
2021/07/30 05:37:29;;;;;;;21.08;10.13;;;;;;;;;;5129615;27;20063;-81
2021/07/30 05:39:55;;;;;;;19.20;9.35;;;;;;;;;;5128828;27;20485;-78
2021/07/30 05:42:22;;;;;;;20.77;9.90;;;;;;;;;;5128660;27;20068;-82
2021/07/30 05:44:49;;;;;;;19.23;10.02;;;;;;;;;;5151698;27;20059;-81
2021/07/30 05:47:15;;;;;;;20.08;9.75;;;;;;;;;;5129627;27;20039;-80
2021/07/30 05:49:44;;;;;;;20.13;9.48;;;;;;;;;;5118420;27;20031;-80
2021/07/30 05:52:10;;;;;;;20.23;8.98;;;;;;;;;;5117320;27;20039;-80
2021/07/30 05:54:36;;;;;;;18.83;9.70;;;;;;;;;;5118632;27;20122;-80
2021/07/30 05:57:03;;;;;;;16.83;8.88;;;;;;;;;;5124637;27;20046;-80
2021/07/30 05:59:29;;;;;;;22.08;9.32;;;;;;;;;;5111880;27;20505;-80
2021/07/30 06:01:55;;;;;;;17.67;8.43;;;;;;;;;;5124268;27;20050;-80
2021/07/30 06:04:21;;;;;;;19.83;9.10;;;;;;;;;;5121259;27;20042;-80
2021/07/30 06:06:47;;;;;;;19.92;8.85;;;;;;;;;;5130720;27;20114;-80
2021/07/30 06:09:14;;;;;;;16.85;7.97;;;;;;;;;;5127836;27;20410;-80
2021/07/30 06:11:40;;;;;;;19.33;8.75;;;;;;;;;;5123314;27;20035;-80
2021/07/30 06:14:07;;;;;;;18.45;8.60;;;;;;;;;;5124420;27;20059;-86
2021/07/30 06:16:33;;;;;;;13.98;7.53;;;;;;;;;;5132714;27;20124;-83
2021/07/30 06:18:59;;;;;;;;;;;;;;;;;;5135043;27;20063;-82
2021/07/30 06:21:25;;;;;;;;;;;;;;;;;;5128422;27;20255;-82
2021/07/30 06:23:51;;;;;;;;;;;;;;;;;;5159014;27;19924;-82
2021/07/30 06:26:17;;;;;;;;;;;;;;;;;;5130535;27;19927;-82
2021/07/30 06:28:43;;;;;;;;;;;;;;;;;;5133534;27;19958;-80
2021/07/30 06:31:09;;;;;;;;;;;;;;;;;;5136739;27;19960;-83
2021/07/30 06:33:35;;;;;;;14.88;7.38;;;;;;;;;;5123090;27;19945;-84
2021/07/30 06:36:03;;;;;;;17.20;8.77;;;;;;;;;;5124151;27;20439;-83
2021/07/30 06:38:30;;;;;;;16.07;8.33;;;;;;;;;;5126488;27;20553;-84
2021/07/30 06:40:56;;;;;;;18.30;8.75;;;;;;;;;;5121926;27;20907;-84
2021/07/30 06:43:22;;;;;;;18.13;8.63;;;;;;;;;;5126031;27;20457;-83
2021/07/30 06:45:50;;;;;;;16.25;8.13;;;;;;;;;;5128504;27;20986;-83
2021/07/30 06:48:16;;;;;;;15.82;7.63;;;;;;;;;;5128434;28;20513;-83
2021/07/30 06:50:44;;;;;;;15.05;8.45;;;;;;;;;;5121003;28;20446;-83
2021/07/30 06:53:11;;;;;;;16.40;8.57;;;;;;;;;;5120636;28;20473;-82
2021/07/30 06:55:37;;;;;;;16.83;8.00;;;;;;;;;;5119995;28;20418;-82
2021/07/30 06:58:03;;;;;;;16.38;8.05;;;;;;;;;;5093290;28;20428;-84
2021/07/30 07:00:29;;;;;;;13.50;7.50;;;;;;;;;;5124732;28;20424;-83
2021/07/30 07:02:55;;;;;;;16.25;7.35;;;;;;;;;;5127873;27;20527;-83
2021/07/30 07:05:21;;;;;;;13.40;7.35;;;;;;;;;;5121196;28;20427;-83
2021/07/30 07:07:49;;;;;;;15.35;7.55;;;;;;;;;;5125774;28;20419;-83
2021/07/30 07:10:16;;;;;;;15.48;7.25;;;;;;;;;;5110496;28;20412;-83
2021/07/30 07:12:42;;;;;;;15.10;7.63;;;;;;;;;;5126724;28;20425;-83
2021/07/30 07:15:08;;;;;;;18.67;7.47;;;;;;;;;;5121896;28;20441;-84
2021/07/30 07:17:35;;;;;;;13.98;6.65;;;;;;;;;;5123998;28;20418;-84
2021/07/30 07:20:01;;;;;;;14.80;7.35;;;;;;;;;;5127443;28;20450;-84
2021/07/30 07:22:28;;;;;;;14.20;6.85;;;;;;;;;;5129273;28;20518;-85
2021/07/30 07:24:56;;;;;;;13.48;6.47;;;;;;;;;;5129704;28;20803;-84
2021/07/30 07:27:22;;;;;;;15.05;6.88;;;;;;;;;;5128749;28;20422;-83
2021/07/30 07:29:48;;;;;;;15.52;6.88;;;;;;;;;;5126666;28;20912;-84
2021/07/30 07:32:14;;;;;;;15.45;6.35;;;;;;;;;;5125906;28;20416;-85
2021/07/30 07:34:41;;;;;;;14.80;6.75;;;;;;;;;;5134476;27;20497;-83
2021/07/30 07:37:07;;;;;;;15.38;6.72;;;;;;;;;;5148973;27;20489;-81
2021/07/30 07:39:33;;;;;;;16.60;6.88;;;;;;;;;;5127102;27;20412;-80
2021/07/30 07:41:59;;;;;;;15.70;6.93;;;;;;;;;;5129707;27;20428;-82
2021/07/30 07:44:25;;;;;;;17.13;7.10;;;;;;;;;;5120972;27;20866;-82
2021/07/30 07:46:51;;;;;;;16.15;6.68;;;;;;;;;;5129970;27;20765;-85
2021/07/30 07:49:18;;;;;;;17.35;7.00;;;;;;;;;;5121963;27;20458;-85
2021/07/30 07:51:44;;;;;;;11.68;5.90;;;;;;;;;;5124115;27;20428;-81
2021/07/30 07:54:10;;;;;;;12.90;5.93;;;;;;;;;;5129307;27;20430;-84
2021/07/30 07:56:37;;;;;;;15.40;7.13;;;;;;;;;;5094233;27;20452;-85
2021/07/30 07:59:03;;;;;;;13.02;6.38;;;;;;;;;;5125139;27;20832;-84
2021/07/30 08:01:29;;;;;;;16.25;6.72;;;;;;;;;;5122004;27;20416;-85
2021/07/30 08:03:55;;;;;;;17.10;7.18;;;;;;;;;;5150823;27;20430;-85
2021/07/30 08:06:22;;;;;;;14.27;7.03;;;;;;;;;;5126761;27;20457;-84
2021/07/30 08:08:49;;;;;;;15.75;6.70;;;;;;;;;;5123330;27;20430;-84
2021/07/30 08:11:16;;;;;;;13.87;6.67;;;;;;;;;;5127376;27;20414;-84
2021/07/30 08:13:43;;;;;;;16.67;6.68;;;;;;;;;;5130062;27;20418;-86
2021/07/30 08:16:09;;;;;;;16.05;6.80;;;;;;;;;;5131180;27;20508;-86
2021/07/30 08:18:35;;;;;;;15.18;6.82;;;;;;;;;;5134311;27;20439;-85
2021/07/30 08:21:02;;;;;;;14.98;6.78;;;;;;;;;;5120500;27;20471;-84
2021/07/30 08:23:28;;;;;;;15.00;7.10;;;;;;;;;;5133011;27;20437;-84
2021/07/30 08:25:55;;;;;;;15.82;7.40;;;;;;;;;;5144332;27;20821;-83
2021/07/30 08:28:21;;;;;;;14.48;6.88;;;;;;;;;;5132433;27;20399;-82
2021/07/30 08:30:48;;;;;;;16.50;7.63;;;;;;;;;;5132650;27;20757;-83
2021/07/30 08:33:16;;;;;;;18.35;7.18;;;;;;;;;;5130265;27;20441;-83
2021/07/30 08:35:42;;;;;;;14.23;7.10;;;;;;;;;;5113417;27;20418;-84
2021/07/30 08:38:08;;;;;;;19.38;7.10;;;;;;;;;;5131671;27;20419;-83
2021/07/30 08:40:38;;;;;;;17.10;7.57;;;;;;;;;;5114112;27;20577;-84
2021/07/30 08:43:04;;;;;;;15.47;7.47;;;;;;;;;;5124066;27;20502;-84
2021/07/30 08:45:30;;;;;;;13.27;7.03;;;;;;;;;;5130061;27;20422;-84
2021/07/30 08:48:00;;;;;;;12.15;6.95;;;;;;;;;;5119990;27;20577;-82
2021/07/30 08:50:26;;;;;;;16.63;7.60;;;;;;;;;;5130861;27;20410;-83
2021/07/30 08:52:56;;;;;;;17.13;7.50;;;;;;;;;;5109919;28;20775;-83
2021/07/30 08:55:29;;;;;;;14.80;7.38;;;;;;;;;;5127065;27;20441;-83
2021/07/30 08:57:55;;;;;;;13.27;6.60;;;;;;;;;;5125520;27;20962;-82
2021/07/30 09:00:21;;;;;;;16.80;7.25;;;;;;;;;;5127439;27;20575;-82
2021/07/30 09:02:48;;;;;;;13.35;7.03;;;;;;;;;;5131219;27;20442;-81
2021/07/30 09:05:29;;;;;;;15.17;7.23;;;;;;;;;;5123042;27;20445;-81
2021/07/30 09:07:56;;;;;;;13.70;6.60;;;;;;;;;;5116589;27;20411;-81
2021/07/30 09:10:26;;;;;;;13.68;6.20;;;;;;;;;;5119926;27;20424;-81
2021/07/30 09:13:09;;;;;;;16.42;6.85;;;;;;;;;;5130254;27;20433;-80
2021/07/30 09:15:36;;;;;;;10.40;6.30;;;;;;;;;;5124787;27;20751;-81
2021/07/30 09:18:03;;;;;;;10.80;6.13;;;;;;;;;;5124744;27;20529;-82
2021/07/30 09:20:29;;;;;;;14.05;6.28;;;;;;;;;;5128609;27;20416;-84
2021/07/30 09:22:55;;;;;;;14.13;6.53;;;;;;;;;;5121171;27;20427;-81
2021/07/30 09:25:35;;;;;;;17.58;6.10;;;;;;;;;;5120787;27;20757;-81
2021/07/30 09:28:02;;;;;;;13.32;5.97;;;;;;;;;;5128570;27;20422;-81
2021/07/30 09:30:28;;;;;;;14.25;6.20;;;;;;;;;;5132136;27;20414;-82
2021/07/30 09:32:54;;;;;;;14.07;5.88;;;;;;;;;;5127052;27;20493;-81
2021/07/30 09:35:20;;;;;;;13.35;5.63;;;;;;;;;;5128168;27;20428;-81
2021/07/30 09:37:47;;;;;;;14.60;5.30;;;;;;;;;;5121662;27;20527;-80
2021/07/30 09:40:20;;;;;;;13.82;5.60;;;;;;;;;;5127593;27;20414;-81
2021/07/30 09:42:46;;;;;;;12.30;5.73;;;;;;;;;;5129890;27;20414;-81
2021/07/30 09:45:15;;;;;;;11.35;5.55;;;;;;;;;;5128229;27;20438;-82
2021/07/30 09:47:48;;;;;;;11.63;4.97;;;;;;;;;;5112553;27;20430;-80
2021/07/30 09:50:20;;;;;;;10.03;5.13;;;;;;;;;;5126867;27;20482;-82
2021/07/30 09:52:51;;;;;;;12.05;5.90;;;;;;;;;;5122342;27;20430;-81
2021/07/30 09:55:20;;;;;;;12.95;5.63;;;;;;;;;;5123838;27;20438;-81
2021/07/30 09:57:46;;;;;;;10.48;4.97;;;;;;;;;;5123727;27;20418;-81
2021/07/30 10:00:13;;;;;;;11.47;5.43;;;;;;;;;;5129006;27;20563;-82
2021/07/30 10:02:41;;;;;;;14.60;5.50;;;;;;;;;;5125153;27;20514;-83
2021/07/30 10:05:10;;;;;;;10.80;4.75;;;;;;;;;;5117580;27;20891;-82
2021/07/30 10:07:37;;;;;;;9.87;4.77;;;;;;;;;;5129771;27;20544;-83
2021/07/30 10:10:39;;;;;;;11.82;5.13;;;;;;;;;;5111854;27;20418;-82
2021/07/30 10:13:02;;;;;;;13.02;5.03;;;;;;;;;;5126576;27;20418;-82
2021/07/30 10:15:29;;;;;;;12.98;4.85;;;;;;;;;;5122011;27;20416;-83
2021/07/30 10:17:57;;;;;;;10.32;4.50;;;;;;;;;;5127059;27;20426;-82
2021/07/30 10:20:24;;;;;;;9.30;5.05;;;;;;;;;;5122482;27;20771;-82
2021/07/30 10:22:54;;;;;;;12.05;4.90;;;;;;;;;;5126764;27;20426;-81
2021/07/30 10:25:22;;;;;;;11.40;5.38;;;;;;;;;;5128694;27;20539;-81
2021/07/30 10:27:49;;;;;;;14.57;5.35;;;;;;;;;;5127042;27;20477;-81
2021/07/30 10:30:16;;;;;;;11.65;5.35;;;;;;;;;;5122524;27;20424;-81
2021/07/30 10:32:42;;;;;;;11.80;5.03;;;;;;;;;;5111021;27;20416;-82
2021/07/30 10:35:08;;;;;;;10.93;4.82;;;;;;;;;;5121311;27;20418;-82
2021/07/30 10:37:35;;;;;;;11.43;4.73;;;;;;;;;;5126107;27;20515;-82
2021/07/30 10:40:18;;;;;;;10.23;4.72;;;;;;;;;;5118453;27;20423;-80
2021/07/30 10:43:03;;;;;;;13.00;4.85;;;;;;;;;;5129804;27;20416;-82
2021/07/30 10:45:30;;;;;;;8.98;5.03;;;;;;;;;;5130063;27;20432;-82
2021/07/30 10:48:11;;;;;;;12.07;4.57;;;;;;;;;;5118611;28;20428;-81
2021/07/30 10:50:56;;;;;;;9.90;4.72;;;;;;;;;;5128553;28;20442;-81
2021/07/30 10:53:34;;;;;;;11.38;4.40;;;;;;;;;;5140801;27;20423;-82
2021/07/30 10:56:01;;;;;;;10.82;4.63;;;;;;;;;;5129218;28;20426;-85
2021/07/30 10:58:39;;;;;;;11.33;4.67;;;;;;;;;;5128692;28;20418;-82
2021/07/30 11:01:09;;;;;;;11.20;5.05;;;;;;;;;;5129086;28;20422;-85
2021/07/30 11:03:51;;;;;;;14.73;5.40;;;;;;;;;;5125660;28;20919;-85
2021/07/30 11:06:20;;;;;;;12.48;5.00;;;;;;;;;;5125531;28;20443;-85
2021/07/30 11:11:47;;;;;;;8.30;4.90;;;;;;;;;;5129318;27;20421;-83
2021/07/30 11:14:15;;;;;;;12.60;5.05;;;;;;;;;;5131838;27;20429;-82
2021/07/30 11:16:42;;;;;;;9.05;4.25;;;;;;;;;;5132841;27;20413;-83
2021/07/30 11:19:08;;;;;;;10.63;3.80;;;;;;;;;;5133461;27;20402;-82
2021/07/30 11:21:34;;;;;;;9.48;4.30;;;;;;;;;;5117792;27;20406;-82
2021/07/30 11:24:01;;;;;;;11.23;4.60;;;;;;;;;;5112336;28;20535;-83
2021/07/30 11:26:31;;;;;;;12.38;4.60;;;;;;;;;;5112982;27;20746;-83
2021/07/30 11:29:01;;;;;;;11.05;4.05;;;;;;;;;;5125411;27;20833;-82
2021/07/30 11:31:27;;;;;;;11.32;3.95;;;;;;;;;;5119491;27;20447;-83
2021/07/30 11:33:54;;;;;;;10.57;4.05;;;;;;;;;;5133043;27;20905;-83
2021/07/30 11:36:20;;;;;;;9.43;3.53;;;;;;;;;;5131365;27;20784;-82
2021/07/30 11:38:50;;;;;;;10.75;3.85;;;;;;;;;;5115925;27;20955;-82
2021/07/30 11:41:17;;;;;;;8.40;3.40;;;;;;;;;;5140960;27;20404;-82
2021/07/30 11:44:02;;;;;;;7.60;3.42;;;;;;;;;;5119472;27;20501;-82
2021/07/30 11:46:32;;;;;;;9.18;3.50;;;;;;;;;;5125960;27;20419;-82
2021/07/30 11:48:59;;;;;;;7.45;3.30;;;;;;;;;;5132419;27;20461;-82
2021/07/30 11:51:26;;;;;;;9.50;3.30;;;;;;;;;;5126498;27;21067;-82
2021/07/30 11:53:53;;;;;;;11.35;3.65;;;;;;;;;;5143339;27;20499;-82
2021/07/30 11:56:19;;;;;;;8.43;3.60;;;;;;;;;;5116541;27;20416;-81
2021/07/30 11:58:58;;;;;;;10.05;4.10;;;;;;;;;;5130230;27;20448;-82
2021/07/30 12:01:24;;;;;;;9.40;3.75;;;;;;;;;;5130647;27;20445;-81
2021/07/30 12:04:09;;;;;;;12.20;4.50;;;;;;;;;;5121069;27;20742;-81
2021/07/30 12:06:38;;;;;;;11.10;4.57;;;;;;;;;;5133171;27;20410;-81
2021/07/30 12:09:06;;;;;;;12.13;4.63;;;;;;;;;;5132397;27;20414;-81
2021/07/30 12:11:32;;;;;;;10.10;4.65;;;;;;;;;;5124942;27;20495;-82
2021/07/30 12:13:59;;;;;;;9.88;5.18;;;;;;;;;;5131826;27;20466;-81
2021/07/30 12:16:26;;;;;;;11.23;5.40;;;;;;;;;;5110279;28;20716;-82
2021/07/30 12:18:52;;;;;;;12.68;5.82;;;;;;;;;;5129169;27;20423;-81
2021/07/30 12:21:18;;;;;;;11.90;4.45;;;;;;;;;;5125171;27;20506;-81
2021/07/30 12:23:44;;;;;;;8.95;4.45;;;;;;;;;;5129010;27;20810;-81
2021/07/30 12:26:29;;;;;;;8.82;4.55;;;;;;;;;;5119944;27;20460;-81
2021/07/30 12:28:55;;;;;;;12.13;4.43;;;;;;;;;;5113722;27;20497;-80
2021/07/30 12:31:22;;;;;;;8.57;4.57;;;;;;;;;;5127816;27;20904;-81
2021/07/30 12:33:48;;;;;;;11.25;4.68;;;;;;;;;;5121035;27;20439;-81
2021/07/30 12:36:15;;;;;;;10.55;4.40;;;;;;;;;;5128085;27;20953;-81
2021/07/30 12:38:57;;;;;;;11.52;4.90;;;;;;;;;;5126005;27;20878;-80
2021/07/30 12:41:27;;;;;;;9.85;4.97;;;;;;;;;;5131598;27;20416;-81
2021/07/30 12:43:54;;;;;;;11.27;5.22;;;;;;;;;;5132730;27;20433;-81
2021/07/30 12:46:39;;;;;;;9.57;5.10;;;;;;;;;;5114449;27;20429;-81
2021/07/30 12:49:06;;;;;;;11.25;5.35;;;;;;;;;;5123027;27;20978;-80
2021/07/30 12:51:33;;;;;;;9.25;4.78;;;;;;;;;;5142723;27;20422;-80
2021/07/30 12:54:07;;;;;;;10.27;4.88;;;;;;;;;;5110441;28;20416;-81
2021/07/30 12:56:52;;;;;;;9.18;4.32;;;;;;;;;;5114016;27;20428;-80
2021/07/30 12:59:18;;;;;;;8.38;4.70;;;;;;;;;;5113963;27;20433;-81
2021/07/30 13:01:44;;;;;;;8.85;4.68;;;;;;;;;;5115545;27;20758;-81
2021/07/30 13:04:12;;;;;;;9.43;4.10;;;;;;;;;;5125058;27;20414;-81
2021/07/30 13:06:41;;;;;;;8.98;4.00;;;;;;;;;;5124403;27;20422;-82
2021/07/30 13:09:07;;;;;;;9.85;3.53;;;;;;;;;;5131359;27;20425;-81
2021/07/30 13:11:33;;;;;;;10.30;3.45;;;;;;;;;;5128469;27;20422;-81
2021/07/30 13:13:59;;;;;;;9.02;3.28;;;;;;;;;;5128107;27;20511;-82
2021/07/30 13:16:26;;;;;;;7.38;3.22;;;;;;;;;;5113772;27;20412;-82
2021/07/30 13:18:52;;;;;;;8.45;3.20;;;;;;;;;;5113025;27;20428;-82
2021/07/30 13:21:18;;;;;;;9.05;3.10;;;;;;;;;;5121755;27;20497;-80
2021/07/30 13:23:44;;;;;;;7.10;3.05;;;;;;;;;;5127336;27;20422;-86
2021/07/30 13:26:11;;;;;;;8.43;3.27;;;;;;;;;;5096321;27;20430;-91
2021/07/30 13:28:37;;;;;;;6.85;3.10;;;;;;;;;;5122639;27;20692;-85
2021/07/30 13:31:03;;;;;;;6.97;3.40;;;;;;;;;;5121198;27;20431;-79
2021/07/30 13:33:29;;;;;;;7.57;3.50;;;;;;;;;;5119109;27;20434;-79
2021/07/30 13:35:55;;;;;;;8.23;3.50;;;;;;;;;;5121677;27;20788;-82
2021/07/30 13:38:21;;;;;;;11.10;4.30;;;;;;;;;;5123121;27;20414;-80
2021/07/30 13:40:48;;;;;;;8.48;3.55;;;;;;;;;;5100979;27;20754;-78
2021/07/30 13:43:15;;;;;;;7.47;3.40;;;;;;;;;;5125725;27;20507;-78
2021/07/30 13:45:44;;;;;;;7.22;3.35;;;;;;;;;;5116308;27;20841;-80
2021/07/30 13:48:10;;;;;;;8.35;3.70;;;;;;;;;;5117919;27;20438;-84
2021/07/30 13:50:36;;;;;;;8.10;3.30;;;;;;;;;;5126194;27;20926;-81
2021/07/30 13:53:02;;;;;;;8.98;3.97;;;;;;;;;;5124804;27;20519;-80
2021/07/30 13:55:28;;;;;;;9.02;3.63;;;;;;;;;;5124788;27;20426;-81
2021/07/30 13:57:55;;;;;;;6.80;3.67;;;;;;;;;;5118091;27;20960;-81
2021/07/30 14:00:21;;;;;;;7.47;3.60;;;;;;;;;;5117887;27;20420;-79
2021/07/30 14:02:47;;;;;;;9.88;3.90;;;;;;;;;;5124170;27;20422;-80
2021/07/30 14:05:13;;;;;;;9.20;3.50;;;;;;;;;;5126712;27;20852;-80
2021/07/30 14:07:41;;;;;;;8.00;4.00;;;;;;;;;;5122145;27;20486;-81
2021/07/30 14:10:10;;;;;;;9.18;4.00;;;;;;;;;;5122841;27;20456;-80
2021/07/30 14:12:37;;;;;;;9.02;4.38;;;;;;;;;;5125528;27;20437;-81
2021/07/30 14:15:06;;;;;;;8.88;4.30;;;;;;;;;;5122310;27;20437;-81
2021/07/30 14:17:33;;;;;;;9.40;4.10;;;;;;;;;;5128336;27;20509;-80
2021/07/30 14:19:59;;;;;;;8.95;4.10;;;;;;;;;;5126149;27;20432;-80
2021/07/30 14:22:25;;;;;;;9.57;4.03;;;;;;;;;;5104516;28;20778;-89
2021/07/30 14:24:51;;;;;;;7.72;4.00;;;;;;;;;;5108583;28;20519;-85
2021/07/30 14:27:17;;;;;;;9.40;4.47;;;;;;;;;;5130424;27;20063;-82
2021/07/30 14:29:44;;;;;;;10.38;4.03;;;;;;;;;;5112376;28;20445;-82
2021/07/30 14:32:10;;;;;;;9.30;3.80;;;;;;;;;;5130200;27;20446;-79
2021/07/30 14:34:36;;;;;;;8.35;3.60;;;;;;;;;;5122170;27;20042;-76
2021/07/30 14:37:02;;;;;;;11.15;3.70;;;;;;;;;;5117980;27;20043;-76